createdAt,value
2022-10-22T00:00:40.958Z,19.80
2022-10-22T00:03:08.360Z,19.40
2022-10-22T00:05:36.500Z,19.40
2022-10-22T00:08:03.831Z,19.40
2022-10-22T00:10:31.684Z,19.40
2022-10-22T00:12:59.174Z,19.60
2022-10-22T00:15:26.943Z,19.40
2022-10-22T00:17:54.575Z,19.40
2022-10-22T00:20:22.843Z,19.40
2022-10-22T00:22:53.228Z,19.40
2022-10-22T00:25:21.037Z,19.40
2022-10-22T00:27:48.395Z,19.40
2022-10-22T00:30:15.944Z,19.40
2022-10-22T00:32:43.535Z,19.40
2022-10-22T00:35:11.180Z,19.40
2022-10-22T00:37:38.933Z,19.40
2022-10-22T00:40:07.786Z,19.40
2022-10-22T00:42:35.122Z,19.40
2022-10-22T00:45:11.444Z,19.40
2022-10-22T00:47:49.073Z,19.40
2022-10-22T00:50:25.474Z,19.40
2022-10-22T00:52:54.086Z,19.50
2022-10-22T00:55:23.047Z,19.50
2022-10-22T00:57:51.414Z,19.40
2022-10-22T01:00:19.076Z,19.40
2022-10-22T01:02:49.422Z,19.50
2022-10-22T01:05:17.386Z,19.40
2022-10-22T01:07:49.214Z,19.50
2022-10-22T01:10:20.123Z,19.40
2022-10-22T01:13:21.197Z,19.50
2022-10-22T01:16:08.890Z,19.40
2022-10-22T01:18:53.282Z,19.40
2022-10-22T01:21:25.182Z,19.40
2022-10-22T01:24:03.764Z,19.60
2022-10-22T01:26:56.101Z,19.40
2022-10-22T01:29:36.691Z,19.40
2022-10-22T01:32:17.261Z,19.40
2022-10-22T01:34:49.365Z,19.40
2022-10-22T01:37:19.805Z,19.40
2022-10-22T01:39:48.148Z,19.40
2022-10-22T01:42:15.942Z,19.40
2022-10-22T01:44:43.434Z,19.70
2022-10-22T01:47:38.526Z,19.40
2022-10-22T01:50:35.281Z,19.30
2022-10-22T01:53:26.394Z,19.30
2022-10-22T01:56:05.647Z,19.30
2022-10-22T01:58:59.055Z,19.30
2022-10-22T02:01:59.873Z,19.30
2022-10-22T02:04:50.555Z,19.30
2022-10-22T02:07:23.173Z,19.30
2022-10-22T02:09:53.154Z,19.30
2022-10-22T02:12:22.742Z,19.30
2022-10-22T02:14:52.137Z,19.30
2022-10-22T02:17:21.959Z,19.30
2022-10-22T02:20:03.354Z,19.30
2022-10-22T02:22:30.950Z,19.30
2022-10-22T02:24:58.377Z,19.60
2022-10-22T02:27:36.209Z,19.60
2022-10-22T02:30:08.476Z,19.30
2022-10-22T02:32:45.279Z,19.30
2022-10-22T02:35:17.253Z,19.30
2022-10-22T02:37:45.209Z,19.00
2022-10-22T02:40:13.395Z,19.30
2022-10-22T02:42:42.671Z,19.30
2022-10-22T02:45:10.794Z,19.20
2022-10-22T02:47:38.108Z,19.30
2022-10-22T02:50:09.524Z,19.30
2022-10-22T02:52:38.959Z,19.30
2022-10-22T02:55:07.549Z,19.20
2022-10-22T02:57:35.091Z,19.20
2022-10-22T03:00:02.426Z,19.20
2022-10-22T03:02:29.860Z,19.20
2022-10-22T03:04:57.954Z,19.20
2022-10-22T03:07:25.550Z,19.40
2022-10-22T03:09:53.186Z,19.20
2022-10-22T03:12:20.644Z,19.20
2022-10-22T03:14:47.986Z,19.20
2022-10-22T03:17:15.610Z,19.20
2022-10-22T03:19:43.239Z,19.20
2022-10-22T03:22:16.330Z,19.20
2022-10-22T03:24:46.159Z,19.20
2022-10-22T03:27:27.676Z,19.20
2022-10-22T03:29:56.593Z,19.20
2022-10-22T03:32:23.938Z,19.40
2022-10-22T03:34:51.608Z,19.20
2022-10-22T03:37:19.491Z,19.20
2022-10-22T03:39:46.936Z,19.20
2022-10-22T03:42:14.369Z,19.20
2022-10-22T03:44:42.114Z,19.20
2022-10-22T03:47:09.732Z,19.10
2022-10-22T03:49:37.073Z,19.20
2022-10-22T03:52:10.454Z,19.10
2022-10-22T03:57:06.812Z,19.20
2022-10-22T03:59:41.882Z,19.20
2022-10-22T04:02:10.569Z,19.20
2022-10-22T04:04:38.054Z,19.20
2022-10-22T04:07:06.474Z,19.20
2022-10-22T04:09:34.714Z,19.20
2022-10-22T04:12:02.296Z,19.20
2022-10-22T04:14:29.665Z,19.20
2022-10-22T04:16:57.144Z,19.20
2022-10-22T04:19:24.907Z,19.50
2022-10-22T04:21:52.236Z,19.20
2022-10-22T04:24:19.762Z,19.20
2022-10-22T04:26:47.093Z,19.20
2022-10-22T04:29:16.142Z,19.10
2022-10-22T04:31:44.246Z,19.10
2022-10-22T04:34:11.692Z,19.20
2022-10-22T04:36:39.050Z,19.50
2022-10-22T04:39:07.120Z,19.10
2022-10-22T04:41:39.411Z,19.10
2022-10-22T04:44:11.105Z,19.10
2022-10-22T04:46:43.726Z,19.10
2022-10-22T04:49:13.230Z,19.40
2022-10-22T04:51:40.586Z,19.10
2022-10-22T04:54:08.173Z,19.10
2022-10-22T04:56:36.688Z,19.40
2022-10-22T04:59:06.424Z,19.40
2022-10-22T05:01:39.957Z,19.00
2022-10-22T05:04:13.448Z,19.10
2022-10-22T05:06:41.529Z,19.00
2022-10-22T05:09:13.547Z,19.00
2022-10-22T05:11:45.364Z,19.20
2022-10-22T05:14:13.046Z,19.00
2022-10-22T05:16:40.501Z,19.00
2022-10-22T05:19:08.502Z,19.00
2022-10-22T05:21:37.757Z,18.90
2022-10-22T05:24:05.454Z,18.90
2022-10-22T05:26:33.151Z,19.00
2022-10-22T05:29:00.857Z,18.90
2022-10-22T05:31:28.908Z,18.90
2022-10-22T05:33:56.234Z,18.90
2022-10-22T05:36:23.906Z,18.90
2022-10-22T05:38:51.287Z,19.00
2022-10-22T05:41:21.342Z,18.90
2022-10-22T05:43:49.183Z,18.90
2022-10-22T05:46:22.467Z,18.90
2022-10-22T05:48:55.154Z,18.90
2022-10-22T05:51:24.385Z,18.90
2022-10-22T05:53:59.069Z,18.90
2022-10-22T05:56:31.026Z,19.20
2022-10-22T05:58:58.795Z,19.10
2022-10-22T06:01:29.161Z,18.90
2022-10-22T06:03:58.678Z,18.90
2022-10-22T06:06:38.607Z,18.90
2022-10-22T06:09:28.205Z,18.90
2022-10-22T06:11:56.305Z,18.90
2022-10-22T06:14:24.686Z,18.90
2022-10-22T06:16:52.725Z,18.80
2022-10-22T06:19:26.596Z,19.10
2022-10-22T06:21:56.652Z,18.80
2022-10-22T06:24:24.323Z,18.80
2022-10-22T06:26:52.393Z,18.80
2022-10-22T06:29:20.053Z,18.80
2022-10-22T06:31:47.693Z,18.80
2022-10-22T06:34:15.811Z,19.10
2022-10-22T06:36:44.645Z,18.70
2022-10-22T06:39:14.030Z,18.90
2022-10-22T06:41:41.397Z,18.70
2022-10-22T06:44:14.997Z,18.70
2022-10-22T06:46:43.900Z,18.90
2022-10-22T06:49:15.786Z,18.70
2022-10-22T06:51:43.388Z,18.60
2022-10-22T06:54:12.073Z,18.60
2022-10-22T06:56:39.578Z,18.60
2022-10-22T06:59:06.894Z,18.60
2022-10-22T07:01:36.191Z,18.50
2022-10-22T07:04:04.777Z,18.50
2022-10-22T07:06:32.450Z,18.50
2022-10-22T07:09:01.109Z,18.50
2022-10-22T07:11:32.006Z,18.50
2022-10-22T07:14:00.961Z,18.50
2022-10-22T07:16:31.282Z,18.50
2022-10-22T07:19:00.859Z,18.50
2022-10-22T07:21:28.938Z,18.40
2022-10-22T07:23:56.653Z,18.40
2022-10-22T07:26:25.732Z,18.40
2022-10-22T07:28:55.805Z,18.50
2022-10-22T07:31:23.686Z,18.50
2022-10-22T07:33:51.144Z,18.40
2022-10-22T07:36:19.177Z,18.40
2022-10-22T07:38:49.176Z,18.50
2022-10-22T07:41:17.241Z,18.50
2022-10-22T07:43:45.282Z,18.50
2022-10-22T07:46:12.686Z,18.50
2022-10-22T07:48:40.130Z,18.60
2022-10-22T07:51:07.757Z,18.60
2022-10-22T07:53:36.657Z,18.70
2022-10-22T07:56:04.619Z,18.70
2022-10-22T07:58:32.069Z,18.80
2022-10-22T08:01:01.915Z,19.00
2022-10-22T08:03:29.914Z,19.10
2022-10-22T08:05:57.744Z,19.00
2022-10-22T08:08:28.363Z,19.30
2022-10-22T08:11:01.105Z,19.30
2022-10-22T08:13:32.725Z,19.60
2022-10-22T08:16:01.071Z,20.00
2022-10-22T08:18:29.149Z,20.20
2022-10-22T08:20:57.159Z,20.40
2022-10-22T08:23:26.161Z,20.80
2022-10-22T08:25:57.195Z,20.70
2022-10-22T08:28:24.905Z,21.20
2022-10-22T08:30:53.038Z,21.40
2022-10-22T08:33:20.474Z,21.50
2022-10-22T08:35:52.154Z,21.80
2022-10-22T08:38:20.354Z,22.10
2022-10-22T08:40:52.377Z,22.50
2022-10-22T08:43:37.884Z,22.80
2022-10-22T08:46:34.063Z,23.10
2022-10-22T08:49:05.313Z,23.40
2022-10-22T08:51:40.424Z,23.80
2022-10-22T08:54:24.937Z,24.00
2022-10-22T08:57:09.068Z,24.20
2022-10-22T09:00:12.277Z,24.60
2022-10-22T09:03:07.561Z,24.80
2022-10-22T09:05:58.974Z,25.10
2022-10-22T09:08:29.083Z,25.30
2022-10-22T09:11:05.892Z,25.70
2022-10-22T09:13:33.726Z,25.90
2022-10-22T09:16:13.727Z,25.80
2022-10-22T09:18:50.165Z,26.10
2022-10-22T09:21:30.475Z,26.10
2022-10-22T09:24:32.140Z,26.30
2022-10-22T09:27:01.980Z,26.40
2022-10-22T09:29:33.852Z,26.60
2022-10-22T09:32:01.667Z,26.70
2022-10-22T09:34:31.619Z,27.10
2022-10-22T09:37:05.233Z,26.90
2022-10-22T09:39:45.810Z,27.00
2022-10-22T09:42:18.053Z,27.10
2022-10-22T09:44:54.865Z,27.20
2022-10-22T09:48:01.002Z,27.30
2022-10-22T09:50:49.532Z,27.50
2022-10-22T09:53:21.972Z,27.50
2022-10-22T09:55:52.978Z,27.50
2022-10-22T09:58:20.924Z,27.40
2022-10-22T10:00:59.290Z,27.50
2022-10-22T10:03:29.380Z,27.40
2022-10-22T10:06:02.952Z,27.20
2022-10-22T10:08:33.683Z,27.10
2022-10-22T10:11:06.098Z,27.00
2022-10-22T10:13:48.695Z,26.80
2022-10-22T10:16:45.264Z,26.70
2022-10-22T10:19:31.293Z,26.60
2022-10-22T10:22:24.203Z,26.40
2022-10-22T10:25:26.988Z,26.30
2022-10-22T10:28:15.307Z,26.20
2022-10-22T10:31:10.937Z,26.00
2022-10-22T10:34:14.841Z,25.90
2022-10-22T10:37:01.432Z,25.80
2022-10-22T10:39:53.889Z,26.00
2022-10-22T10:42:39.152Z,25.50
2022-10-22T10:45:23.668Z,25.40
2022-10-22T10:48:04.250Z,25.30
2022-10-22T10:50:39.165Z,25.20
2022-10-22T10:53:54.929Z,25.10
2022-10-22T10:56:39.711Z,25.00
2022-10-22T10:59:38.773Z,24.90
2022-10-22T11:02:22.364Z,24.80
2022-10-22T11:05:07.451Z,24.90
2022-10-22T11:07:42.085Z,24.60
2022-10-22T11:10:18.551Z,24.50
2022-10-22T11:12:51.607Z,24.50
2022-10-22T11:15:35.545Z,24.40
2022-10-22T11:18:19.159Z,24.30
2022-10-22T11:20:54.107Z,24.30
2022-10-22T11:23:39.800Z,24.30
2022-10-22T11:26:15.603Z,24.20
2022-10-22T11:28:49.979Z,24.30
2022-10-22T11:31:18.847Z,24.20
2022-10-22T11:34:09.755Z,24.50
2022-10-22T11:36:43.745Z,24.20
2022-10-22T11:39:42.863Z,24.20
2022-10-22T11:42:19.197Z,24.20
2022-10-22T11:44:48.813Z,24.40
2022-10-22T11:47:23.834Z,24.20
2022-10-22T11:49:59.392Z,24.20
2022-10-22T11:52:32.993Z,24.00
2022-10-22T11:55:51.888Z,24.20
2022-10-22T11:58:39.087Z,24.10
2022-10-22T12:01:09.506Z,24.20
2022-10-22T12:03:58.415Z,24.10
2022-10-22T12:06:28.013Z,24.00
2022-10-22T12:09:00.759Z,24.10
2022-10-22T12:11:47.668Z,24.00
2022-10-22T12:14:24.314Z,24.00
2022-10-22T12:17:19.497Z,24.20
2022-10-22T12:20:16.995Z,24.10
2022-10-22T12:23:25.939Z,23.90
2022-10-22T12:31:49.033Z,24.10
2022-10-22T12:38:22.824Z,23.60
2022-10-22T12:41:04.132Z,23.60
2022-10-22T12:43:35.904Z,23.80
2022-10-22T12:46:13.866Z,24.00
2022-10-22T12:48:44.222Z,24.00
2022-10-22T12:51:18.742Z,24.00
2022-10-22T12:53:55.820Z,24.10
2022-10-22T12:56:40.145Z,23.90
2022-10-22T12:59:40.188Z,24.00
2022-10-22T13:02:24.632Z,23.80
2022-10-22T13:05:33.998Z,24.10
2022-10-22T13:08:13.066Z,23.80
2022-10-22T13:10:42.231Z,23.80
2022-10-22T13:13:30.553Z,23.80
2022-10-22T13:16:33.144Z,23.80
2022-10-22T13:19:00.563Z,23.80
2022-10-22T13:21:54.623Z,23.80
2022-10-22T13:24:24.467Z,23.80
2022-10-22T13:26:55.067Z,23.70
2022-10-22T13:29:24.038Z,23.70
2022-10-22T13:31:53.745Z,24.00
2022-10-22T13:34:24.232Z,23.90
2022-10-22T13:36:52.339Z,24.00
2022-10-22T13:39:22.080Z,23.70
2022-10-22T13:41:50.654Z,23.90
2022-10-22T13:44:19.600Z,23.90
2022-10-22T13:46:48.389Z,24.10
2022-10-22T13:49:18.419Z,23.90
2022-10-22T13:51:46.380Z,23.90
2022-10-22T13:54:27.380Z,23.70
2022-10-22T13:56:54.731Z,23.70
2022-10-22T13:59:23.816Z,23.60
2022-10-22T14:01:52.111Z,23.60
2022-10-22T14:04:19.942Z,23.60
2022-10-22T14:06:47.249Z,23.60
2022-10-22T14:09:15.783Z,23.60
2022-10-22T14:11:43.317Z,23.60
2022-10-22T14:14:14.114Z,23.60
2022-10-22T14:16:41.753Z,23.50
2022-10-22T14:19:16.278Z,23.50
2022-10-22T14:21:43.985Z,23.80
2022-10-22T14:24:13.191Z,23.50
2022-10-22T14:26:40.988Z,23.50
2022-10-22T14:29:09.933Z,23.50
2022-10-22T14:34:15.514Z,23.50
2022-10-22T14:36:46.255Z,23.60
2022-10-22T14:39:14.227Z,23.50
2022-10-22T14:41:42.428Z,23.40
2022-10-22T14:44:13.786Z,23.40
2022-10-22T14:46:43.889Z,23.40
2022-10-22T14:49:11.299Z,23.60
2022-10-22T14:51:41.162Z,23.40
2022-10-22T14:54:08.861Z,23.40
2022-10-22T14:56:38.446Z,23.40
2022-10-22T14:59:06.180Z,23.40
2022-10-22T15:01:33.892Z,23.40
2022-10-22T15:04:28.197Z,23.70
2022-10-22T15:06:56.483Z,23.40
2022-10-22T15:09:28.212Z,23.60
2022-10-22T15:11:59.227Z,23.40
2022-10-22T15:14:29.621Z,23.50
2022-10-22T15:16:59.332Z,23.30
2022-10-22T15:19:26.922Z,23.50
2022-10-22T15:21:57.283Z,23.30
2022-10-22T15:24:25.379Z,23.20
2022-10-22T15:26:54.828Z,23.20
2022-10-22T15:29:22.326Z,23.40
2022-10-22T15:31:52.390Z,23.10
2022-10-22T15:34:28.719Z,23.10
2022-10-22T15:36:58.616Z,23.10
2022-10-22T15:39:26.966Z,23.40
2022-10-22T15:41:57.425Z,23.10
2022-10-22T15:44:30.217Z,23.20
2022-10-22T15:46:58.698Z,23.20
2022-10-22T15:49:28.253Z,23.00
2022-10-22T15:51:59.132Z,22.70
2022-10-22T15:54:28.911Z,22.90
2022-10-22T15:57:03.512Z,23.10
2022-10-22T15:59:54.538Z,22.80
2022-10-22T16:02:25.030Z,22.90
2022-10-22T16:04:55.592Z,23.10
2022-10-22T16:07:36.358Z,23.10
2022-10-22T16:15:00.466Z,22.80
2022-10-22T16:18:07.205Z,22.90
2022-10-22T16:20:52.873Z,22.40
2022-10-22T16:23:38.940Z,22.60
2022-10-22T16:26:14.204Z,22.70
2022-10-22T16:28:58.194Z,22.50
2022-10-22T16:31:31.521Z,22.40
2022-10-22T16:34:03.222Z,22.40
2022-10-22T16:36:33.612Z,22.50
2022-10-22T16:39:01.020Z,22.20
2022-10-22T16:41:34.887Z,22.60
2022-10-22T16:44:04.625Z,22.10
2022-10-22T16:46:33.618Z,22.50
2022-10-22T16:49:00.960Z,22.20
2022-10-22T16:51:28.817Z,22.00
2022-10-22T16:53:58.811Z,22.00
2022-10-22T16:56:26.555Z,22.40
2022-10-22T16:58:56.630Z,21.90
2022-10-22T17:01:26.596Z,22.40
2022-10-22T17:03:57.821Z,22.10
2022-10-22T17:06:25.837Z,21.70
2022-10-22T17:08:53.745Z,22.40
2022-10-22T17:11:23.804Z,21.60
2022-10-22T17:13:54.234Z,21.90
2022-10-22T17:16:25.221Z,21.40
2022-10-22T17:18:58.032Z,21.40
2022-10-22T17:21:25.693Z,21.40
2022-10-22T17:23:57.217Z,21.30
2022-10-22T17:26:26.834Z,21.20
2022-10-22T17:29:09.203Z,21.40
2022-10-22T17:31:38.157Z,21.10
2022-10-22T17:34:08.437Z,21.30
2022-10-22T17:36:36.479Z,21.20
2022-10-22T17:39:08.076Z,20.90
2022-10-22T17:41:37.149Z,20.80
2022-10-22T17:44:09.017Z,20.80
2022-10-22T17:46:37.977Z,20.70
2022-10-22T17:49:12.377Z,20.90
2022-10-22T17:51:40.354Z,20.50
2022-10-22T17:54:09.922Z,20.50
2022-10-22T17:56:40.236Z,20.50
2022-10-22T17:59:12.546Z,20.40
2022-10-22T18:01:45.139Z,20.70
2022-10-22T18:04:15.973Z,20.30
2022-10-22T18:06:43.735Z,20.20
2022-10-22T18:09:17.226Z,20.50
2022-10-22T18:11:52.890Z,20.50
2022-10-22T18:14:22.245Z,20.10
2022-10-22T18:16:51.604Z,20.00
2022-10-22T18:19:28.455Z,20.10
2022-10-22T18:21:57.539Z,20.20
2022-10-22T18:25:48.054Z,19.80
2022-10-22T18:33:05.015Z,19.60
2022-10-22T18:35:36.263Z,19.60
2022-10-22T18:38:19.767Z,19.60
2022-10-22T18:40:49.315Z,19.70
2022-10-22T18:43:20.211Z,19.70
2022-10-22T18:45:50.437Z,19.60
2022-10-22T18:48:28.874Z,19.50
2022-10-22T18:51:15.893Z,19.60
2022-10-22T18:54:31.578Z,19.30
2022-10-22T18:57:05.169Z,19.30
2022-10-22T18:59:41.643Z,19.50
2022-10-22T19:02:09.783Z,19.20
2022-10-22T19:04:37.565Z,19.20
2022-10-22T19:07:05.689Z,19.10
2022-10-22T19:09:40.483Z,19.00
2022-10-22T19:12:25.939Z,19.20
2022-10-22T19:14:59.811Z,18.70
2022-10-22T19:17:28.048Z,18.90
2022-10-22T19:19:55.473Z,18.90
2022-10-22T19:22:23.071Z,18.80
2022-10-22T19:24:50.726Z,18.80
2022-10-22T19:27:20.245Z,18.70
2022-10-22T19:29:49.650Z,18.70
2022-10-22T19:32:20.022Z,18.70
2022-10-22T19:34:47.553Z,18.70
2022-10-22T19:37:15.647Z,18.60
2022-10-22T19:39:43.250Z,18.60
2022-10-22T19:42:10.727Z,18.60
2022-10-22T19:44:38.157Z,18.60
2022-10-22T19:47:05.873Z,18.50
2022-10-22T19:49:33.362Z,18.50
2022-10-22T19:52:00.667Z,18.50
2022-10-22T19:54:27.965Z,18.40
2022-10-22T19:56:56.365Z,18.40
2022-10-22T19:59:27.269Z,18.40
2022-10-22T20:01:57.180Z,18.30
2022-10-22T20:04:26.940Z,18.30
2022-10-22T20:06:56.758Z,18.50
2022-10-22T20:09:24.880Z,18.30
2022-10-22T20:11:52.313Z,17.90
2022-10-22T20:14:19.726Z,18.20
2022-10-22T20:16:47.061Z,18.20
2022-10-22T20:19:16.123Z,18.20
2022-10-22T20:21:44.920Z,18.50
2022-10-22T20:24:17.714Z,18.10
2022-10-22T20:26:48.003Z,18.10
2022-10-22T20:29:20.995Z,18.00
2022-10-22T20:31:52.420Z,18.10
2022-10-22T20:34:20.111Z,18.20
2022-10-22T20:36:47.806Z,18.20
2022-10-22T20:39:16.807Z,18.00
2022-10-22T20:41:44.260Z,17.90
2022-10-22T20:44:15.479Z,17.90
2022-10-22T20:46:44.022Z,17.80
2022-10-22T20:49:15.249Z,17.90
2022-10-22T20:51:42.938Z,17.80
2022-10-22T20:54:11.713Z,17.90
2022-10-22T20:56:40.393Z,18.00
2022-10-22T20:59:11.083Z,17.80
2022-10-22T21:02:00.714Z,17.70
2022-10-22T21:04:30.070Z,17.80
2022-10-22T21:06:57.790Z,17.80
2022-10-22T21:09:25.450Z,17.70
2022-10-22T21:11:58.254Z,17.70
2022-10-22T21:14:26.192Z,17.70
2022-10-22T21:17:03.953Z,17.80
2022-10-22T21:19:31.582Z,17.80
2022-10-22T21:22:03.875Z,17.80
2022-10-22T21:24:41.257Z,17.80
2022-10-22T21:27:34.103Z,17.80
2022-10-22T21:30:25.177Z,17.30
2022-10-22T21:33:08.734Z,17.70
2022-10-22T21:35:54.681Z,17.50
2022-10-22T21:38:31.987Z,17.70
2022-10-22T21:41:37.076Z,17.50
2022-10-22T21:44:07.335Z,17.60
2022-10-22T21:46:35.884Z,17.60
2022-10-22T21:49:04.736Z,17.40
2022-10-22T21:51:38.130Z,17.40
2022-10-22T21:54:06.140Z,17.30
2022-10-22T21:56:35.738Z,17.30
2022-10-22T21:59:04.767Z,17.30
2022-10-22T22:01:32.875Z,17.30
2022-10-22T22:04:00.634Z,17.20
2022-10-22T22:06:33.158Z,17.20
2022-10-22T22:09:03.718Z,17.20
2022-10-22T22:11:31.702Z,17.30
2022-10-22T22:13:59.567Z,17.20
2022-10-22T22:16:31.039Z,17.10
2022-10-22T22:19:00.456Z,17.10
2022-10-22T22:21:28.778Z,17.10
2022-10-22T22:23:57.771Z,17.10
2022-10-22T22:26:29.633Z,17.30
2022-10-22T22:29:01.044Z,17.00
2022-10-22T22:31:34.061Z,17.00
2022-10-22T22:34:04.742Z,16.90
2022-10-22T22:36:37.885Z,16.90
2022-10-22T22:39:13.725Z,16.90
2022-10-22T22:41:42.573Z,16.90
2022-10-22T22:44:10.441Z,16.90
2022-10-22T22:46:38.249Z,16.90
2022-10-22T22:49:06.037Z,16.80
2022-10-22T22:51:33.674Z,16.80
2022-10-22T22:54:01.722Z,16.80
2022-10-22T22:56:32.150Z,16.80
2022-10-22T22:58:59.604Z,17.10
2022-10-22T23:01:30.418Z,17.10
2022-10-22T23:04:03.948Z,16.70
2022-10-22T23:06:37.006Z,16.70
2022-10-22T23:09:07.403Z,16.70
2022-10-22T23:11:35.043Z,16.60
2022-10-22T23:14:06.280Z,16.70
2022-10-22T23:16:36.614Z,16.60
2022-10-22T23:19:08.096Z,16.60
2022-10-22T23:21:38.446Z,16.50
2022-10-22T23:24:09.699Z,16.50
2022-10-22T23:26:39.789Z,16.50
2022-10-22T23:29:16.490Z,16.50
2022-10-22T23:31:44.894Z,16.40
2022-10-22T23:34:15.428Z,16.40
2022-10-22T23:36:42.874Z,16.40
2022-10-22T23:39:13.858Z,16.40
2022-10-22T23:41:41.631Z,16.30
2022-10-22T23:44:09.999Z,16.30
2022-10-22T23:46:40.595Z,16.30
2022-10-22T23:49:09.036Z,16.30
2022-10-22T23:51:36.530Z,16.20
2022-10-22T23:54:06.621Z,16.30
2022-10-22T23:56:34.518Z,16.20
2022-10-22T23:59:02.837Z,16.20
